Time;durP1;ratioP1;P1;durP2;ratioP2;P2;SDS_P1;SDS_P2;PMS_P1;PMS_P2;Temp;Humidity;BMP_temperature;BMP_pressure;BME280_temperature;BME280_humidity;BME280_pressure;Samples;Min_cycle;Max_cycle;Signal;HPM_P1;HPM_P2
2022/12/31 00:07:03;;;;;;;7.68;5.93;;;;;;;;;;6010255;23;20961;-90
2022/12/31 00:09:28;;;;;;;9.30;6.05;;;;;;;;;;6040279;23;20084;-92
2022/12/31 00:11:54;;;;;;;7.53;6.57;;;;;;;;;;6015752;23;20466;-93
2022/12/31 10:23:12;;;;;;;12.65;8.77;;;;;;;;;;6036087;23;20030;-95
2022/12/31 10:26:15;;;;;;;9.10;8.20;;;;;;;;;;6044845;23;19999;-96
2022/12/31 10:28:43;;;;;;;10.77;8.32;;;;;;;;;;6040466;23;20047;-94
2022/12/31 10:31:16;;;;;;;12.23;8.57;;;;;;;;;;6020683;23;20458;-96
2022/12/31 10:34:03;;;;;;;12.13;8.57;;;;;;;;;;6020136;23;20435;-94
2022/12/31 10:36:36;;;;;;;10.13;7.60;;;;;;;;;;6023877;23;20441;-95
2022/12/31 10:39:08;;;;;;;13.25;9.15;;;;;;;;;;6024572;23;20019;-96
2022/12/31 10:42:02;;;;;;;10.60;8.45;;;;;;;;;;5994494;23;20098;-90
2022/12/31 10:44:38;;;;;;;10.40;8.10;;;;;;;;;;6013626;23;20066;-93
2022/12/31 10:47:22;;;;;;;15.10;8.75;;;;;;;;;;6013197;23;20000;-90
2022/12/31 10:50:09;;;;;;;10.65;8.23;;;;;;;;;;6016445;23;20011;-95
2022/12/31 10:52:56;;;;;;;10.90;8.15;;;;;;;;;;5988492;23;20431;-90
2022/12/31 10:55:37;;;;;;;9.60;8.10;;;;;;;;;;6013359;23;20024;-90
2022/12/31 10:58:32;;;;;;;10.68;8.30;;;;;;;;;;6012844;23;20015;-86
2022/12/31 11:01:15;;;;;;;10.07;8.30;;;;;;;;;;5961374;23;20011;-92
2022/12/31 11:04:05;;;;;;;10.65;8.15;;;;;;;;;;6013381;23;20075;-91
2022/12/31 11:06:49;;;;;;;11.07;8.07;;;;;;;;;;5988533;23;20004;-89
2022/12/31 11:09:51;;;;;;;8.93;7.45;;;;;;;;;;5987894;23;20060;-90
2022/12/31 11:12:49;;;;;;;9.32;7.22;;;;;;;;;;6012810;23;20034;-86
2022/12/31 11:15:21;;;;;;;8.27;7.47;;;;;;;;;;5988380;23;20012;-87
2022/12/31 11:17:49;;;;;;;12.45;9.00;;;;;;;;;;5988966;23;20015;-88
2022/12/31 11:21:05;;;;;;;9.90;8.68;;;;;;;;;;5992528;23;20313;-88
2022/12/31 11:23:48;;;;;;;9.85;8.25;;;;;;;;;;5915774;23;20010;-86
2022/12/31 11:26:49;;;;;;;13.55;10.13;;;;;;;;;;5988174;23;20465;-89
2022/12/31 11:29:50;;;;;;;13.18;10.20;;;;;;;;;;5987594;23;20506;-85
2022/12/31 11:32:49;;;;;;;15.35;11.23;;;;;;;;;;6012566;23;20007;-85
2022/12/31 11:35:41;;;;;;;12.00;9.38;;;;;;;;;;5987207;23;20321;-85
2022/12/31 11:38:42;;;;;;;12.60;10.13;;;;;;;;;;6011843;23;20004;-85
2022/12/31 11:41:26;;;;;;;11.50;9.38;;;;;;;;;;5965183;23;20007;-85
2022/12/31 11:44:10;;;;;;;11.82;9.43;;;;;;;;;;6012240;23;20030;-90
2022/12/31 11:46:47;;;;;;;10.10;7.63;;;;;;;;;;6011272;23;19996;-85
2022/12/31 11:49:40;;;;;;;12.20;9.95;;;;;;;;;;6012403;23;20011;-86
2022/12/31 11:52:24;;;;;;;10.75;8.18;;;;;;;;;;6011842;23;20014;-91
2022/12/31 11:55:23;;;;;;;9.20;7.75;;;;;;;;;;6011081;23;20007;-91
2022/12/31 11:57:49;;;;;;;10.82;7.88;;;;;;;;;;5987061;23;20011;-89
2022/12/31 12:00:27;;;;;;;9.52;8.07;;;;;;;;;;5987159;23;20015;-90
2022/12/31 12:03:02;;;;;;;9.45;8.05;;;;;;;;;;6010693;23;20183;-86
2022/12/31 12:05:28;;;;;;;12.98;10.88;;;;;;;;;;6011842;23;20000;-85
2022/12/31 12:07:55;;;;;;;12.35;9.80;;;;;;;;;;6011753;23;20003;-86
2022/12/31 12:10:25;;;;;;;11.13;8.20;;;;;;;;;;6011908;23;20412;-85
2022/12/31 12:12:52;;;;;;;10.25;8.13;;;;;;;;;;6011815;23;20000;-85
2022/12/31 12:15:25;;;;;;;10.90;9.07;;;;;;;;;;6011838;23;20000;-86
2022/12/31 12:17:53;;;;;;;9.88;8.38;;;;;;;;;;6011900;23;20428;-86
2022/12/31 12:20:29;;;;;;;11.85;7.90;;;;;;;;;;5986631;23;20452;-85
2022/12/31 12:22:56;;;;;;;9.52;7.95;;;;;;;;;;6011961;23;20006;-85
2022/12/31 12:25:25;;;;;;;10.43;7.82;;;;;;;;;;6011427;23;20028;-86
2022/12/31 12:27:51;;;;;;;8.80;6.97;;;;;;;;;;5986733;23;20031;-85
2022/12/31 12:30:26;;;;;;;7.03;6.30;;;;;;;;;;6011361;23;20000;-86
2022/12/31 12:33:01;;;;;;;9.13;7.13;;;;;;;;;;6011770;23;20302;-85
2022/12/31 12:35:33;;;;;;;13.13;9.50;;;;;;;;;;5986472;23;20016;-85
2022/12/31 12:38:03;;;;;;;10.50;7.88;;;;;;;;;;6011522;23;20431;-85
2022/12/31 12:40:29;;;;;;;8.40;6.63;;;;;;;;;;6009847;23;20014;-87
2022/12/31 12:42:55;;;;;;;8.63;6.90;;;;;;;;;;6011314;23;20037;-86
2022/12/31 12:45:22;;;;;;;10.77;7.95;;;;;;;;;;5986457;23;20008;-85
2022/12/31 12:47:53;;;;;;;12.57;8.68;;;;;;;;;;6009914;23;20023;-86
2022/12/31 12:50:35;;;;;;;14.35;9.32;;;;;;;;;;6011503;23;20015;-86
2022/12/31 12:53:31;;;;;;;13.05;9.75;;;;;;;;;;5964224;23;20003;-85
2022/12/31 12:56:05;;;;;;;11.70;9.77;;;;;;;;;;6009713;23;20012;-87
2022/12/31 12:58:47;;;;;;;13.50;11.27;;;;;;;;;;6011758;23;20031;-86
2022/12/31 13:01:21;;;;;;;11.98;10.15;;;;;;;;;;6011610;23;20010;-88
2022/12/31 13:03:55;;;;;;;10.70;9.60;;;;;;;;;;6011705;23;20429;-86
2022/12/31 13:06:44;;;;;;;10.23;9.23;;;;;;;;;;6011681;23;20004;-88
2022/12/31 13:09:43;;;;;;;10.93;8.77;;;;;;;;;;6011513;23;20012;-88
2022/12/31 13:12:29;;;;;;;10.17;8.07;;;;;;;;;;6011737;23;20008;-88
2022/12/31 13:15:10;;;;;;;8.70;6.90;;;;;;;;;;6010694;23;20270;-88
2022/12/31 13:17:59;;;;;;;9.23;7.05;;;;;;;;;;6013695;23;20070;-87
2022/12/31 13:20:25;;;;;;;8.43;7.32;;;;;;;;;;6013380;23;20435;-83
2022/12/31 13:23:13;;;;;;;9.43;6.93;;;;;;;;;;6013288;23;20019;-84
2022/12/31 13:26:02;;;;;;;8.13;6.80;;;;;;;;;;6013219;23;20004;-83
2022/12/31 13:28:33;;;;;;;7.37;5.73;;;;;;;;;;6013188;23;20008;-84
2022/12/31 13:31:01;;;;;;;7.15;5.40;;;;;;;;;;5989220;23;20325;-84
2022/12/31 13:33:32;;;;;;;6.40;5.03;;;;;;;;;;6013363;23;20084;-83
2022/12/31 13:36:01;;;;;;;5.55;4.70;;;;;;;;;;5988240;23;20012;-84
2022/12/31 13:38:39;;;;;;;6.80;5.38;;;;;;;;;;6013409;23;20011;-84
2022/12/31 13:41:17;;;;;;;10.98;7.93;;;;;;;;;;5988271;23;20014;-85
2022/12/31 13:43:53;;;;;;;9.00;7.25;;;;;;;;;;5988240;23;20015;-86
2022/12/31 13:46:29;;;;;;;8.07;5.88;;;;;;;;;;5988107;23;20011;-88
2022/12/31 13:49:08;;;;;;;6.75;5.45;;;;;;;;;;6013101;23;20014;-87
2022/12/31 13:52:03;;;;;;;6.47;5.22;;;;;;;;;;6012841;23;20007;-86
2022/12/31 13:54:44;;;;;;;5.07;4.57;;;;;;;;;;6012933;23;20447;-86
2022/12/31 13:57:26;;;;;;;5.57;3.85;;;;;;;;;;6013010;23;20008;-87
2022/12/31 13:59:58;;;;;;;4.70;4.07;;;;;;;;;;6012912;23;20007;-88
2022/12/31 14:02:44;;;;;;;5.45;4.95;;;;;;;;;;6013035;23;20000;-86
2022/12/31 14:05:10;;;;;;;7.70;5.55;;;;;;;;;;6012985;23;20019;-84
2022/12/31 14:07:40;;;;;;;5.88;5.28;;;;;;;;;;6012853;23;20051;-85
2022/12/31 14:10:12;;;;;;;8.80;6.40;;;;;;;;;;6012856;23;20113;-86
2022/12/31 14:12:49;;;;;;;7.70;6.03;;;;;;;;;;6012921;23;20000;-85
2022/12/31 14:15:28;;;;;;;8.38;7.57;;;;;;;;;;6013016;23;20011;-86
2022/12/31 14:18:13;;;;;;;9.80;6.35;;;;;;;;;;6012652;23;20450;-86
2022/12/31 14:20:46;;;;;;;10.02;7.70;;;;;;;;;;6012673;23;20412;-85
2022/12/31 14:23:18;;;;;;;10.65;9.05;;;;;;;;;;6012783;23;20003;-87
2022/12/31 14:26:11;;;;;;;12.60;8.40;;;;;;;;;;6012874;23;20008;-87
2022/12/31 14:28:46;;;;;;;10.20;8.82;;;;;;;;;;5987408;23;20022;-85
2022/12/31 14:31:38;;;;;;;13.52;10.30;;;;;;;;;;6012445;23;20061;-86
2022/12/31 14:34:24;;;;;;;13.35;10.32;;;;;;;;;;6006969;23;20024;-85
2022/12/31 14:36:55;;;;;;;11.27;10.02;;;;;;;;;;6012714;23;20007;-86
2022/12/31 14:39:48;;;;;;;16.13;12.23;;;;;;;;;;6012911;23;20029;-88
2022/12/31 14:42:35;;;;;;;12.73;10.70;;;;;;;;;;6012696;23;20011;-85
2022/12/31 14:45:42;;;;;;;11.23;9.15;;;;;;;;;;6013393;23;20088;-86
2022/12/31 14:48:43;;;;;;;10.88;8.80;;;;;;;;;;5959812;23;20455;-85
2022/12/31 14:51:11;;;;;;;12.45;9.02;;;;;;;;;;6012558;23;20008;-88
2022/12/31 14:53:36;;;;;;;18.65;12.43;;;;;;;;;;6012546;23;20012;-85
2022/12/31 14:56:33;;;;;;;34.13;17.77;;;;;;;;;;6013137;23;20497;-90
2022/12/31 14:59:01;;;;;;;127.22;47.92;;;;;;;;;;5987812;23;20015;-89
2022/12/31 15:01:27;;;;;;;54.47;24.05;;;;;;;;;;5988135;23;20007;-89
2022/12/31 15:03:56;;;;;;;23.33;13.65;;;;;;;;;;5987481;23;20011;-85
2022/12/31 15:06:22;;;;;;;21.88;11.95;;;;;;;;;;5987284;23;20011;-88
2022/12/31 15:09:12;;;;;;;39.50;24.50;;;;;;;;;;5987229;23;20015;-88
2022/12/31 15:12:14;;;;;;;19.65;12.35;;;;;;;;;;6012318;23;20012;-88
2022/12/31 15:15:01;;;;;;;17.77;11.80;;;;;;;;;;5987480;23;20432;-90
2022/12/31 15:17:52;;;;;;;15.45;11.23;;;;;;;;;;6012207;23;20067;-85
2022/12/31 15:20:23;;;;;;;12.98;10.52;;;;;;;;;;6012091;23;20003;-84
2022/12/31 15:22:50;;;;;;;13.57;10.20;;;;;;;;;;6012032;23;20331;-85
2022/12/31 15:25:27;;;;;;;13.82;10.32;;;;;;;;;;5987773;23;20090;-84
2022/12/31 15:27:56;;;;;;;14.20;10.40;;;;;;;;;;6012253;23;20016;-84
2022/12/31 15:30:28;;;;;;;13.73;11.55;;;;;;;;;;6012435;23;20328;-84
2022/12/31 15:32:56;;;;;;;19.35;13.90;;;;;;;;;;6012232;23;20039;-84
2022/12/31 15:35:21;;;;;;;13.15;10.45;;;;;;;;;;5987001;23;20024;-85
2022/12/31 15:38:09;;;;;;;17.98;14.52;;;;;;;;;;6012035;23;20076;-84
2022/12/31 15:40:42;;;;;;;14.35;11.32;;;;;;;;;;6011716;23;20008;-84
2022/12/31 15:43:31;;;;;;;17.83;15.93;;;;;;;;;;6012156;23;20043;-84
2022/12/31 15:45:57;;;;;;;17.02;13.20;;;;;;;;;;6012193;23;20008;-84
2022/12/31 15:48:38;;;;;;;13.32;11.32;;;;;;;;;;6011786;23;20354;-84
2022/12/31 15:51:04;;;;;;;13.80;10.68;;;;;;;;;;5986979;23;20034;-85
2022/12/31 15:53:38;;;;;;;13.05;9.95;;;;;;;;;;6011521;23;20424;-85
2022/12/31 15:56:06;;;;;;;12.63;9.60;;;;;;;;;;5986931;23;20042;-85
2022/12/31 15:58:37;;;;;;;12.70;8.90;;;;;;;;;;6011924;23;20003;-85
2022/12/31 16:01:19;;;;;;;13.27;8.90;;;;;;;;;;6011883;23;20095;-85
2022/12/31 16:03:49;;;;;;;10.05;8.98;;;;;;;;;;6011824;23;20003;-86
2022/12/31 16:06:16;;;;;;;12.38;9.75;;;;;;;;;;6011588;23;20004;-84
2022/12/31 16:08:47;;;;;;;12.15;9.77;;;;;;;;;;6011582;23;20039;-84
2022/12/31 16:11:13;;;;;;;13.85;11.38;;;;;;;;;;6011999;23;20008;-86
2022/12/31 16:13:44;;;;;;;14.90;11.60;;;;;;;;;;6011838;23;20011;-86
2022/12/31 16:16:20;;;;;;;15.02;11.77;;;;;;;;;;6011944;23;20435;-85
2022/12/31 16:18:48;;;;;;;13.75;10.00;;;;;;;;;;6011781;23;20556;-85
2022/12/31 16:21:46;;;;;;;13.52;9.68;;;;;;;;;;6011611;23;20004;-85
2022/12/31 16:24:31;;;;;;;12.15;8.77;;;;;;;;;;6010765;23;20008;-85
2022/12/31 16:27:12;;;;;;;11.98;8.10;;;;;;;;;;6012119;23;20446;-85
2022/12/31 16:29:45;;;;;;;12.00;9.00;;;;;;;;;;6011548;23;20029;-86
2022/12/31 16:32:16;;;;;;;10.43;8.75;;;;;;;;;;6011715;23;20450;-85
2022/12/31 16:34:42;;;;;;;11.07;7.80;;;;;;;;;;6011600;23;20090;-86
2022/12/31 16:37:21;;;;;;;10.93;8.20;;;;;;;;;;5986725;23;20012;-85
2022/12/31 16:39:56;;;;;;;13.05;9.10;;;;;;;;;;5986658;23;20008;-86
2022/12/31 16:42:22;;;;;;;13.55;8.90;;;;;;;;;;6012194;23;20008;-86
2022/12/31 18:52:41;;;;;;;10.98;8.85;;;;;;;;;;6012840;23;20312;-89
2022/12/31 18:55:35;;;;;;;11.57;9.13;;;;;;;;;;6015925;23;20043;-90
2022/12/31 18:58:00;;;;;;;18.48;11.73;;;;;;;;;;6041199;23;20034;-94
2022/12/31 19:00:26;;;;;;;13.65;10.35;;;;;;;;;;6015650;23;20391;-88
2022/12/31 19:02:51;;;;;;;15.35;9.50;;;;;;;;;;6040981;23;19999;-89
2022/12/31 19:05:22;;;;;;;11.68;9.23;;;;;;;;;;6015748;23;20011;-88
2022/12/31 19:07:48;;;;;;;13.43;9.55;;;;;;;;;;6040786;23;20042;-90
2022/12/31 19:10:15;;;;;;;11.57;8.82;;;;;;;;;;6040821;23;20103;-89
2022/12/31 19:12:41;;;;;;;12.65;9.25;;;;;;;;;;6015583;23;20029;-87
2022/12/31 19:15:32;;;;;;;10.20;8.48;;;;;;;;;;6040803;23;20007;-84
2022/12/31 19:17:59;;;;;;;10.43;8.30;;;;;;;;;;6040491;23;20003;-88
2022/12/31 19:20:25;;;;;;;11.85;8.90;;;;;;;;;;6041011;23;20003;-87
2022/12/31 19:22:51;;;;;;;11.98;8.88;;;;;;;;;;6040740;23;20108;-88
2022/12/31 19:25:21;;;;;;;11.57;9.20;;;;;;;;;;6040699;23;20007;-86
2022/12/31 19:27:46;;;;;;;19.25;13.68;;;;;;;;;;6040664;23;20014;-89
2022/12/31 19:30:24;;;;;;;16.77;12.40;;;;;;;;;;6040655;23;20004;-88
2022/12/31 19:32:51;;;;;;;17.17;13.40;;;;;;;;;;6040671;23;20007;-87
2022/12/31 19:35:17;;;;;;;20.48;12.90;;;;;;;;;;6040672;23;20065;-86
2022/12/31 19:37:45;;;;;;;17.23;12.13;;;;;;;;;;6040585;23;20335;-88
2022/12/31 19:40:22;;;;;;;15.35;10.57;;;;;;;;;;6015456;23;20442;-88
2022/12/31 19:42:49;;;;;;;13.15;10.40;;;;;;;;;;6015228;23;20454;-88
2022/12/31 19:45:17;;;;;;;12.15;9.93;;;;;;;;;;6040221;23;20003;-88
2022/12/31 19:47:43;;;;;;;12.82;10.50;;;;;;;;;;6040519;23;20423;-83
2022/12/31 19:50:26;;;;;;;17.55;12.57;;;;;;;;;;6040467;23;20014;-88
2022/12/31 19:52:55;;;;;;;15.52;10.50;;;;;;;;;;6040226;23;20011;-88
2022/12/31 19:55:23;;;;;;;9.55;7.28;;;;;;;;;;6040195;23;20462;-83
2022/12/31 19:57:49;;;;;;;12.40;9.20;;;;;;;;;;6040279;23;20008;-88
2022/12/31 20:00:16;;;;;;;18.30;12.60;;;;;;;;;;6040507;23;20042;-87
2022/12/31 20:02:43;;;;;;;18.92;14.05;;;;;;;;;;6040308;23;19999;-86
2022/12/31 20:05:10;;;;;;;14.43;11.57;;;;;;;;;;6015034;23;20462;-84
2022/12/31 20:07:36;;;;;;;13.55;10.63;;;;;;;;;;6040113;23;20010;-89
2022/12/31 20:10:02;;;;;;;13.85;10.70;;;;;;;;;;6040230;23;20003;-87
2022/12/31 20:12:28;;;;;;;15.10;11.18;;;;;;;;;;6040025;23;20419;-84
2022/12/31 20:14:54;;;;;;;13.32;9.60;;;;;;;;;;6040187;23;20070;-87
2022/12/31 20:17:20;;;;;;;12.52;9.70;;;;;;;;;;6040419;23;20007;-87
2022/12/31 20:19:45;;;;;;;12.98;9.68;;;;;;;;;;6040071;23;20095;-87
2022/12/31 20:22:11;;;;;;;13.90;9.88;;;;;;;;;;6040214;23;20031;-88
2022/12/31 20:24:36;;;;;;;12.60;10.57;;;;;;;;;;6014598;23;20086;-87
2022/12/31 20:27:01;;;;;;;13.43;10.10;;;;;;;;;;6040168;23;20004;-89
2022/12/31 20:29:27;;;;;;;11.60;9.93;;;;;;;;;;6040049;23;20030;-86
2022/12/31 20:31:52;;;;;;;14.80;9.88;;;;;;;;;;6040064;23;20483;-87
2022/12/31 20:34:18;;;;;;;16.40;11.90;;;;;;;;;;6040098;23;20031;-87
2022/12/31 20:36:43;;;;;;;15.50;11.20;;;;;;;;;;6039969;23;20003;-90
2022/12/31 20:39:09;;;;;;;12.38;10.25;;;;;;;;;;6038441;23;20042;-88
2022/12/31 20:41:34;;;;;;;15.63;11.23;;;;;;;;;;6038168;23;20086;-87
2022/12/31 20:44:00;;;;;;;14.00;10.02;;;;;;;;;;6040065;23;20035;-87
2022/12/31 20:46:28;;;;;;;26.70;19.55;;;;;;;;;;6039976;23;20039;-87
2022/12/31 20:48:58;;;;;;;20.08;15.85;;;;;;;;;;6039871;23;20030;-86
2022/12/31 20:51:25;;;;;;;24.88;15.63;;;;;;;;;;6039855;23;20011;-87
2022/12/31 20:53:56;;;;;;;22.52;16.08;;;;;;;;;;6039886;23;20008;-88
2022/12/31 20:56:23;;;;;;;21.13;14.05;;;;;;;;;;6040224;23;20010;-89
2022/12/31 20:58:49;;;;;;;31.60;15.32;;;;;;;;;;6039627;23;20419;-89
2022/12/31 21:01:15;;;;;;;36.17;18.92;;;;;;;;;;6039871;23;20003;-87
2022/12/31 21:03:43;;;;;;;44.10;21.10;;;;;;;;;;6039830;23;20423;-88
2022/12/31 21:06:09;;;;;;;47.22;22.90;;;;;;;;;;6039811;23;20376;-87
2022/12/31 21:08:35;;;;;;;43.08;18.65;;;;;;;;;;6039473;23;20078;-90
2022/12/31 21:11:02;;;;;;;24.83;13.00;;;;;;;;;;6038398;23;20007;-89
2022/12/31 21:13:27;;;;;;;24.40;13.35;;;;;;;;;;6038161;23;20075;-88
2022/12/31 21:15:54;;;;;;;38.92;18.23;;;;;;;;;;6038443;23;20360;-88
2022/12/31 21:18:21;;;;;;;39.20;18.77;;;;;;;;;;6039738;23;20416;-88
2022/12/31 21:20:51;;;;;;;47.15;29.85;;;;;;;;;;6038463;23;20075;-85
2022/12/31 21:23:18;;;;;;;39.35;22.45;;;;;;;;;;6038275;23;20085;-89
2022/12/31 21:25:44;;;;;;;27.05;14.38;;;;;;;;;;6039715;23;20003;-89
2022/12/31 21:28:11;;;;;;;24.52;12.45;;;;;;;;;;6039476;23;20019;-89
2022/12/31 21:30:38;;;;;;;24.00;12.77;;;;;;;;;;6039884;23;20008;-88
2022/12/31 21:33:04;;;;;;;19.42;13.05;;;;;;;;;;6039715;23;20039;-88
2022/12/31 21:35:30;;;;;;;18.10;11.35;;;;;;;;;;6039549;23;20015;-87
2022/12/31 21:38:06;;;;;;;19.77;12.43;;;;;;;;;;6040924;23;20332;-88
2022/12/31 21:40:32;;;;;;;19.35;13.77;;;;;;;;;;6041716;23;20331;-88
2022/12/31 21:42:58;;;;;;;19.67;13.68;;;;;;;;;;6041552;23;20431;-88
2022/12/31 21:45:24;;;;;;;17.75;12.82;;;;;;;;;;6041877;23;20003;-87
2022/12/31 21:50:34;;;;;;;22.20;13.50;;;;;;;;;;6042025;23;20087;-88
2022/12/31 21:53:00;;;;;;;15.65;12.23;;;;;;;;;;6041250;23;20023;-89
2022/12/31 21:58:09;;;;;;;20.85;16.40;;;;;;;;;;6041588;23;20014;-88
2022/12/31 22:03:28;;;;;;;18.40;14.82;;;;;;;;;;6041442;23;20014;-89
2022/12/31 22:05:56;;;;;;;16.58;12.93;;;;;;;;;;6041460;23;20007;-88
2022/12/31 22:08:22;;;;;;;11.50;9.70;;;;;;;;;;6041253;23;20007;-88
2022/12/31 22:10:48;;;;;;;10.35;8.43;;;;;;;;;;6041303;23;20423;-88
2022/12/31 22:13:14;;;;;;;13.35;10.68;;;;;;;;;;6015806;23;20098;-89
2022/12/31 22:15:44;;;;;;;15.55;11.55;;;;;;;;;;6016072;23;20419;-88
2022/12/31 22:18:09;;;;;;;;;;;;;;;;;;6041696;23;20007;-87
2022/12/31 22:20:34;;;;;;;12.13;9.30;;;;;;;;;;6041174;23;19916;-88
2022/12/31 22:23:00;;;;;;;15.73;9.90;;;;;;;;;;6041323;23;20308;-88
2022/12/31 22:25:25;;;;;;;20.08;12.52;;;;;;;;;;6041337;23;20369;-87
2022/12/31 22:27:51;;;;;;;11.65;8.90;;;;;;;;;;6015622;23;20036;-86
2022/12/31 22:30:17;;;;;;;12.60;9.48;;;;;;;;;;6015973;23;20011;-89
2022/12/31 22:32:42;;;;;;;14.57;11.13;;;;;;;;;;6041272;23;20007;-88
2022/12/31 22:35:08;;;;;;;11.90;8.70;;;;;;;;;;6041070;23;20059;-85
2022/12/31 22:37:33;;;;;;;13.30;10.80;;;;;;;;;;6041054;23;20015;-89
2022/12/31 22:39:59;;;;;;;15.25;10.38;;;;;;;;;;6040938;23;20014;-89
2022/12/31 22:42:24;;;;;;;20.10;13.15;;;;;;;;;;6040968;23;20004;-88
2022/12/31 22:44:50;;;;;;;18.75;12.55;;;;;;;;;;6041162;23;20014;-87
2022/12/31 22:47:15;;;;;;;14.93;11.10;;;;;;;;;;6040658;23;20011;-88
2022/12/31 22:49:41;;;;;;;24.42;15.00;;;;;;;;;;6039556;23;20012;-89
2022/12/31 22:52:06;;;;;;;27.35;16.25;;;;;;;;;;6040844;23;20011;-89
2022/12/31 22:54:31;;;;;;;17.50;11.75;;;;;;;;;;6040757;23;20003;-86
2022/12/31 22:56:57;;;;;;;16.23;11.95;;;;;;;;;;6039240;23;20007;-88
2022/12/31 22:59:23;;;;;;;21.70;15.52;;;;;;;;;;6040757;23;20063;-87
2022/12/31 23:01:49;;;;;;;26.90;17.70;;;;;;;;;;6039386;23;20015;-87
2022/12/31 23:04:14;;;;;;;148.77;77.07;;;;;;;;;;6039380;23;20394;-88
2022/12/31 23:06:43;;;;;;;854.95;611.58;;;;;;;;;;6040842;23;20018;-90
2022/12/31 23:11:54;;;;;;;242.07;154.68;;;;;;;;;;6040959;23;20406;-88
2022/12/31 23:25:16;;;;;;;21.98;15.50;;;;;;;;;;6040849;23;20395;-84
2022/12/31 23:27:42;;;;;;;21.60;14.35;;;;;;;;;;6040068;23;20030;-87
2022/12/31 23:30:08;;;;;;;19.98;14.23;;;;;;;;;;6040451;23;20015;-87
2022/12/31 23:32:33;;;;;;;22.23;16.05;;;;;;;;;;6040070;23;20059;-87
2022/12/31 23:34:59;;;;;;;24.38;16.90;;;;;;;;;;6040464;23;20011;-88
2022/12/31 23:37:24;;;;;;;23.77;16.75;;;;;;;;;;6040680;23;20003;-89
2022/12/31 23:39:50;;;;;;;23.55;17.27;;;;;;;;;;6040283;23;20007;-88
2022/12/31 23:42:15;;;;;;;26.23;18.80;;;;;;;;;;6040703;23;20090;-88
2022/12/31 23:44:41;;;;;;;30.38;20.80;;;;;;;;;;6040546;23;20055;-88
2022/12/31 23:47:06;;;;;;;34.38;22.65;;;;;;;;;;6040455;23;20003;-89
2022/12/31 23:49:31;;;;;;;34.72;21.80;;;;;;;;;;6040297;23;20037;-87
2022/12/31 23:51:57;;;;;;;28.10;19.92;;;;;;;;;;6040478;23;20498;-88
2022/12/31 23:54:22;;;;;;;32.78;21.30;;;;;;;;;;6040704;23;20007;-88
2022/12/31 23:56:48;;;;;;;30.60;20.55;;;;;;;;;;6040200;23;20030;-84
2022/12/31 23:59:13;;;;;;;42.13;25.60;;;;;;;;;;6039568;23;20368;-88
